sensor_id;sensor_type;location;lat;lon;timestamp;P1;durP1;ratioP1;P2;durP2;ratioP2
12038;SDS011;6080;48.818;9.526;2023-07-08T03:01:48;51.40;;;48.07;;
12038;SDS011;6080;48.818;9.526;2023-07-08T03:04:15;63.37;;;59.73;;
12038;SDS011;6080;48.818;9.526;2023-07-08T03:06:44;51.03;;;47.78;;
12038;SDS011;6080;48.818;9.526;2023-07-08T03:09:11;66.20;;;62.00;;
12038;SDS011;6080;48.818;9.526;2023-07-08T03:11:38;65.90;;;61.90;;
12038;SDS011;6080;48.818;9.526;2023-07-08T03:14:04;58.38;;;54.95;;
12038;SDS011;6080;48.818;9.526;2023-07-08T03:16:31;57.10;;;53.57;;
12038;SDS011;6080;48.818;9.526;2023-07-08T03:18:57;57.23;;;53.93;;
12038;SDS011;6080;48.818;9.526;2023-07-08T03:21:23;46.63;;;43.58;;
12038;SDS011;6080;48.818;9.526;2023-07-08T03:23:49;37.07;;;34.57;;
12038;SDS011;6080;48.818;9.526;2023-07-08T03:26:17;31.93;;;29.83;;
12038;SDS011;6080;48.818;9.526;2023-07-08T03:28:46;23.43;;;21.57;;
12038;SDS011;6080;48.818;9.526;2023-07-08T03:31:12;20.30;;;18.80;;
12038;SDS011;6080;48.818;9.526;2023-07-08T03:33:38;31.53;;;29.30;;
12038;SDS011;6080;48.818;9.526;2023-07-08T03:36:04;42.23;;;38.93;;
12038;SDS011;6080;48.818;9.526;2023-07-08T03:38:35;42.50;;;39.90;;
12038;SDS011;6080;48.818;9.526;2023-07-08T03:41:01;39.13;;;36.30;;
12038;SDS011;6080;48.818;9.526;2023-07-08T03:43:26;47.23;;;44.37;;
12038;SDS011;6080;48.818;9.526;2023-07-08T03:45:52;39.73;;;37.10;;
12038;SDS011;6080;48.818;9.526;2023-07-08T03:48:18;34.03;;;31.80;;
12038;SDS011;6080;48.818;9.526;2023-07-08T03:50:44;23.42;;;21.38;;
12038;SDS011;6080;48.818;9.526;2023-07-08T03:53:10;20.40;;;18.67;;
12038;SDS011;6080;48.818;9.526;2023-07-08T03:55:36;15.10;;;13.70;;
12038;SDS011;6080;48.818;9.526;2023-07-08T03:58:01;17.57;;;16.07;;
12038;SDS011;6080;48.818;9.526;2023-07-08T04:00:27;40.70;;;38.03;;
12038;SDS011;6080;48.818;9.526;2023-07-08T04:02:53;20.53;;;18.83;;
12038;SDS011;6080;48.818;9.526;2023-07-08T04:05:19;31.50;;;29.40;;
12038;SDS011;6080;48.818;9.526;2023-07-08T04:07:47;41.13;;;37.97;;
12038;SDS011;6080;48.818;9.526;2023-07-08T04:10:13;34.37;;;32.13;;
12038;SDS011;6080;48.818;9.526;2023-07-08T04:12:39;14.97;;;13.67;;
12038;SDS011;6080;48.818;9.526;2023-07-08T04:15:09;13.97;;;10.33;;
12038;SDS011;6080;48.818;9.526;2023-07-08T04:17:37;13.07;;;8.80;;
12038;SDS011;6080;48.818;9.526;2023-07-08T04:20:11;9.87;;;8.90;;
12038;SDS011;6080;48.818;9.526;2023-07-08T04:22:39;11.50;;;10.30;;
12038;SDS011;6080;48.818;9.526;2023-07-08T04:25:07;11.87;;;10.77;;
12038;SDS011;6080;48.818;9.526;2023-07-08T04:27:33;14.30;;;12.90;;
12038;SDS011;6080;48.818;9.526;2023-07-08T04:29:59;18.65;;;17.15;;
12038;SDS011;6080;48.818;9.526;2023-07-08T04:32:24;16.93;;;15.20;;
12038;SDS011;6080;48.818;9.526;2023-07-08T04:34:53;13.27;;;11.10;;
12038;SDS011;6080;48.818;9.526;2023-07-08T04:37:19;28.58;;;26.60;;
12038;SDS011;6080;48.818;9.526;2023-07-08T04:39:45;45.25;;;42.22;;
12038;SDS011;6080;48.818;9.526;2023-07-08T04:42:12;46.80;;;44.05;;
12038;SDS011;6080;48.818;9.526;2023-07-08T04:44:41;54.30;;;50.90;;
12038;SDS011;6080;48.818;9.526;2023-07-08T04:47:07;47.83;;;45.00;;
12038;SDS011;6080;48.818;9.526;2023-07-08T04:49:39;26.67;;;24.75;;
12038;SDS011;6080;48.818;9.526;2023-07-08T04:52:06;12.25;;;10.32;;
12038;SDS011;6080;48.818;9.526;2023-07-08T04:54:31;9.02;;;7.65;;
12038;SDS011;6080;48.818;9.526;2023-07-08T04:56:57;11.80;;;8.65;;
12038;SDS011;6080;48.818;9.526;2023-07-08T04:59:24;9.27;;;8.25;;
12038;SDS011;6080;48.818;9.526;2023-07-08T05:01:50;9.80;;;8.80;;
12038;SDS011;6080;48.818;9.526;2023-07-08T05:04:18;10.30;;;9.07;;
12038;SDS011;6080;48.818;9.526;2023-07-08T05:06:44;13.32;;;12.05;;
12038;SDS011;6080;48.818;9.526;2023-07-08T05:09:11;13.65;;;12.25;;
12038;SDS011;6080;48.818;9.526;2023-07-08T05:11:37;10.52;;;8.73;;
12038;SDS011;6080;48.818;9.526;2023-07-08T05:14:03;10.77;;;9.57;;
12038;SDS011;6080;48.818;9.526;2023-07-08T05:16:31;13.93;;;12.75;;
12038;SDS011;6080;48.818;9.526;2023-07-08T05:18:59;17.65;;;16.15;;
12038;SDS011;6080;48.818;9.526;2023-07-08T05:21:24;12.38;;;11.27;;
12038;SDS011;6080;48.818;9.526;2023-07-08T05:23:52;14.20;;;13.18;;
12038;SDS011;6080;48.818;9.526;2023-07-08T05:26:18;40.08;;;37.58;;
12038;SDS011;6080;48.818;9.526;2023-07-08T05:28:45;52.58;;;49.53;;
12038;SDS011;6080;48.818;9.526;2023-07-08T05:31:11;40.22;;;37.78;;
12038;SDS011;6080;48.818;9.526;2023-07-08T05:33:37;10.45;;;9.45;;
12038;SDS011;6080;48.818;9.526;2023-07-08T05:36:03;13.95;;;8.80;;
12038;SDS011;6080;48.818;9.526;2023-07-08T05:38:28;11.10;;;10.07;;
12038;SDS011;6080;48.818;9.526;2023-07-08T05:40:55;18.98;;;17.50;;
12038;SDS011;6080;48.818;9.526;2023-07-08T05:43:22;14.85;;;13.13;;
12038;SDS011;6080;48.818;9.526;2023-07-08T05:45:48;24.55;;;22.83;;
12038;SDS011;6080;48.818;9.526;2023-07-08T05:48:14;42.97;;;40.58;;
12038;SDS011;6080;48.818;9.526;2023-07-08T05:50:40;30.75;;;28.83;;
12038;SDS011;6080;48.818;9.526;2023-07-08T05:53:09;11.52;;;10.45;;
12038;SDS011;6080;48.818;9.526;2023-07-08T05:55:35;8.73;;;7.95;;
12038;SDS011;6080;48.818;9.526;2023-07-08T05:58:01;18.25;;;16.80;;
12038;SDS011;6080;48.818;9.526;2023-07-08T06:00:27;19.02;;;17.73;;
12038;SDS011;6080;48.818;9.526;2023-07-08T06:02:52;11.10;;;10.20;;
12038;SDS011;6080;48.818;9.526;2023-07-08T06:05:18;8.32;;;7.57;;
12038;SDS011;6080;48.818;9.526;2023-07-08T06:07:44;8.45;;;7.65;;
12038;SDS011;6080;48.818;9.526;2023-07-08T06:10:10;8.82;;;7.93;;
12038;SDS011;6080;48.818;9.526;2023-07-08T06:12:36;9.38;;;8.38;;
12038;SDS011;6080;48.818;9.526;2023-07-08T06:15:02;9.98;;;8.27;;
12038;SDS011;6080;48.818;9.526;2023-07-08T06:17:28;10.45;;;9.45;;
12038;SDS011;6080;48.818;9.526;2023-07-08T06:19:54;9.90;;;9.00;;
12038;SDS011;6080;48.818;9.526;2023-07-08T06:22:19;10.35;;;9.45;;
12038;SDS011;6080;48.818;9.526;2023-07-08T06:24:45;10.30;;;9.45;;
12038;SDS011;6080;48.818;9.526;2023-07-08T06:27:13;8.20;;;7.47;;
12038;SDS011;6080;48.818;9.526;2023-07-08T06:29:39;10.13;;;9.07;;
12038;SDS011;6080;48.818;9.526;2023-07-08T06:32:05;16.95;;;15.07;;
12038;SDS011;6080;48.818;9.526;2023-07-08T06:34:32;19.95;;;18.25;;
12038;SDS011;6080;48.818;9.526;2023-07-08T06:36:57;17.27;;;15.68;;
12038;SDS011;6080;48.818;9.526;2023-07-08T06:39:23;18.17;;;16.42;;
12038;SDS011;6080;48.818;9.526;2023-07-08T06:41:49;14.32;;;13.07;;
12038;SDS011;6080;48.818;9.526;2023-07-08T06:44:14;14.45;;;13.13;;
12038;SDS011;6080;48.818;9.526;2023-07-08T06:46:40;10.70;;;9.07;;
12038;SDS011;6080;48.818;9.526;2023-07-08T06:49:06;10.73;;;8.65;;
12038;SDS011;6080;48.818;9.526;2023-07-08T06:51:37;9.75;;;8.60;;
12038;SDS011;6080;48.818;9.526;2023-07-08T06:54:02;11.38;;;7.93;;
12038;SDS011;6080;48.818;9.526;2023-07-08T06:56:30;9.45;;;8.43;;
12038;SDS011;6080;48.818;9.526;2023-07-08T06:58:56;9.73;;;8.40;;
12038;SDS011;6080;48.818;9.526;2023-07-08T07:01:22;11.70;;;10.43;;
12038;SDS011;6080;48.818;9.526;2023-07-08T07:03:47;13.48;;;10.93;;
12038;SDS011;6080;48.818;9.526;2023-07-08T07:06:13;14.35;;;13.15;;
12038;SDS011;6080;48.818;9.526;2023-07-08T07:08:39;16.17;;;14.63;;
12038;SDS011;6080;48.818;9.526;2023-07-08T07:11:05;15.38;;;11.48;;
12038;SDS011;6080;48.818;9.526;2023-07-08T07:13:30;15.43;;;9.10;;
12038;SDS011;6080;48.818;9.526;2023-07-08T07:15:58;10.45;;;9.38;;
12038;SDS011;6080;48.818;9.526;2023-07-08T07:18:23;10.57;;;9.43;;
12038;SDS011;6080;48.818;9.526;2023-07-08T07:20:50;10.18;;;9.27;;
12038;SDS011;6080;48.818;9.526;2023-07-08T07:23:18;14.77;;;13.50;;
12038;SDS011;6080;48.818;9.526;2023-07-08T07:25:44;13.82;;;12.82;;
12038;SDS011;6080;48.818;9.526;2023-07-08T07:28:13;12.95;;;11.85;;
12038;SDS011;6080;48.818;9.526;2023-07-08T07:30:42;10.93;;;9.82;;
12038;SDS011;6080;48.818;9.526;2023-07-08T07:33:09;12.93;;;11.73;;
12038;SDS011;6080;48.818;9.526;2023-07-08T07:35:35;13.27;;;11.95;;
12038;SDS011;6080;48.818;9.526;2023-07-08T07:38:01;14.60;;;13.23;;
12038;SDS011;6080;48.818;9.526;2023-07-08T07:40:27;13.25;;;12.07;;
12038;SDS011;6080;48.818;9.526;2023-07-08T07:42:52;10.48;;;9.48;;
12038;SDS011;6080;48.818;9.526;2023-07-08T07:45:18;11.82;;;10.65;;
12038;SDS011;6080;48.818;9.526;2023-07-08T07:47:47;10.85;;;10.02;;
12038;SDS011;6080;48.818;9.526;2023-07-08T07:50:13;11.15;;;10.07;;
12038;SDS011;6080;48.818;9.526;2023-07-08T07:52:39;10.88;;;9.85;;
12038;SDS011;6080;48.818;9.526;2023-07-08T07:55:06;10.52;;;9.60;;
12038;SDS011;6080;48.818;9.526;2023-07-08T07:57:33;10.52;;;9.55;;
12038;SDS011;6080;48.818;9.526;2023-07-08T07:59:58;10.95;;;9.27;;
12038;SDS011;6080;48.818;9.526;2023-07-08T08:02:24;11.52;;;10.52;;
12038;SDS011;6080;48.818;9.526;2023-07-08T08:04:50;11.43;;;10.35;;
12038;SDS011;6080;48.818;9.526;2023-07-08T08:07:16;10.25;;;9.20;;
12038;SDS011;6080;48.818;9.526;2023-07-08T08:09:41;10.98;;;10.02;;
12038;SDS011;6080;48.818;9.526;2023-07-08T08:12:09;14.98;;;10.50;;
12038;SDS011;6080;48.818;9.526;2023-07-08T08:14:36;10.02;;;9.23;;
12038;SDS011;6080;48.818;9.526;2023-07-08T08:17:03;10.68;;;9.70;;
12038;SDS011;6080;48.818;9.526;2023-07-08T08:19:30;12.93;;;9.43;;
12038;SDS011;6080;48.818;9.526;2023-07-08T08:21:56;9.57;;;8.73;;
12038;SDS011;6080;48.818;9.526;2023-07-08T08:24:22;13.55;;;12.35;;
12038;SDS011;6080;48.818;9.526;2023-07-08T08:26:48;11.80;;;10.77;;
12038;SDS011;6080;48.818;9.526;2023-07-08T08:29:14;10.75;;;9.80;;
12038;SDS011;6080;48.818;9.526;2023-07-08T08:31:39;13.93;;;12.52;;
12038;SDS011;6080;48.818;9.526;2023-07-08T08:34:05;11.70;;;10.80;;
12038;SDS011;6080;48.818;9.526;2023-07-08T08:36:31;12.95;;;11.93;;
12038;SDS011;6080;48.818;9.526;2023-07-08T08:38:57;15.98;;;14.88;;
12038;SDS011;6080;48.818;9.526;2023-07-08T08:41:41;23.15;;;21.58;;
12038;SDS011;6080;48.818;9.526;2023-07-08T08:44:10;35.42;;;33.40;;
12038;SDS011;6080;48.818;9.526;2023-07-08T08:46:42;99.30;;;93.97;;
12038;SDS011;6080;48.818;9.526;2023-07-08T08:49:32;121.85;;;115.75;;
12038;SDS011;6080;48.818;9.526;2023-07-08T08:52:12;102.53;;;97.30;;
12038;SDS011;6080;48.818;9.526;2023-07-08T08:54:39;104.53;;;99.00;;
12038;SDS011;6080;48.818;9.526;2023-07-08T08:59:57;105.93;;;100.53;;
12038;SDS011;6080;48.818;9.526;2023-07-08T09:02:29;105.50;;;100.20;;
12038;SDS011;6080;48.818;9.526;2023-07-08T09:05:05;108.45;;;103.00;;
12038;SDS011;6080;48.818;9.526;2023-07-08T09:07:43;107.00;;;101.00;;
12038;SDS011;6080;48.818;9.526;2023-07-08T09:12:54;87.38;;;82.85;;
12038;SDS011;6080;48.818;9.526;2023-07-08T09:15:22;103.00;;;97.78;;
12038;SDS011;6080;48.818;9.526;2023-07-08T09:17:51;105.13;;;99.63;;
12038;SDS011;6080;48.818;9.526;2023-07-08T09:20:24;100.32;;;95.07;;
12038;SDS011;6080;48.818;9.526;2023-07-08T09:25:36;95.40;;;90.55;;
12038;SDS011;6080;48.818;9.526;2023-07-08T09:28:08;78.38;;;74.07;;
12038;SDS011;6080;48.818;9.526;2023-07-08T09:30:34;83.18;;;78.57;;
12038;SDS011;6080;48.818;9.526;2023-07-08T09:33:03;75.32;;;71.22;;
12038;SDS011;6080;48.818;9.526;2023-07-08T09:35:40;41.78;;;39.17;;
12038;SDS011;6080;48.818;9.526;2023-07-08T09:38:14;27.05;;;25.27;;
12038;SDS011;6080;48.818;9.526;2023-07-08T09:40:44;29.08;;;27.10;;
12038;SDS011;6080;48.818;9.526;2023-07-08T09:46:01;66.63;;;63.05;;
12038;SDS011;6080;48.818;9.526;2023-07-08T09:48:29;73.38;;;69.43;;
12038;SDS011;6080;48.818;9.526;2023-07-08T09:51:04;90.20;;;85.45;;
12038;SDS011;6080;48.818;9.526;2023-07-08T09:53:32;59.30;;;56.10;;
12038;SDS011;6080;48.818;9.526;2023-07-08T09:55:59;37.35;;;35.25;;
12038;SDS011;6080;48.818;9.526;2023-07-08T09:58:29;14.18;;;12.90;;
12038;SDS011;6080;48.818;9.526;2023-07-08T10:01:00;7.00;;;6.47;;
12038;SDS011;6080;48.818;9.526;2023-07-08T10:03:33;6.85;;;6.05;;
12038;SDS011;6080;48.818;9.526;2023-07-08T10:06:03;11.25;;;10.52;;
12038;SDS011;6080;48.818;9.526;2023-07-08T10:08:50;16.30;;;15.20;;
12038;SDS011;6080;48.818;9.526;2023-07-08T10:13:54;6.90;;;6.13;;
12038;SDS011;6080;48.818;9.526;2023-07-08T10:16:41;8.20;;;7.47;;
12038;SDS011;6080;48.818;9.526;2023-07-08T10:19:14;12.43;;;11.23;;
12038;SDS011;6080;48.818;9.526;2023-07-08T10:30:20;6.63;;;6.03;;
12038;SDS011;6080;48.818;9.526;2023-07-08T10:35:30;7.88;;;7.22;;
12038;SDS011;6080;48.818;9.526;2023-07-08T10:40:48;4.03;;;3.65;;
12038;SDS011;6080;48.818;9.526;2023-07-08T10:43:32;8.23;;;7.72;;
12038;SDS011;6080;48.818;9.526;2023-07-08T10:46:16;7.03;;;6.63;;
12038;SDS011;6080;48.818;9.526;2023-07-08T10:51:35;27.38;;;25.92;;
12038;SDS011;6080;48.818;9.526;2023-07-08T10:54:09;60.50;;;57.05;;
12038;SDS011;6080;48.818;9.526;2023-07-08T11:04:51;5.88;;;5.38;;
12038;SDS011;6080;48.818;9.526;2023-07-08T11:10:20;8.55;;;7.95;;
12038;SDS011;6080;48.818;9.526;2023-07-08T11:13:05;10.60;;;9.90;;
12038;SDS011;6080;48.818;9.526;2023-07-08T11:15:40;18.83;;;17.85;;
12038;SDS011;6080;48.818;9.526;2023-07-08T11:18:15;12.50;;;11.27;;
12038;SDS011;6080;48.818;9.526;2023-07-08T11:20:51;3.90;;;3.70;;
12038;SDS011;6080;48.818;9.526;2023-07-08T11:26:05;3.70;;;3.40;;
12038;SDS011;6080;48.818;9.526;2023-07-08T11:28:44;2.97;;;2.80;;
12038;SDS011;6080;48.818;9.526;2023-07-08T11:31:10;3.53;;;3.22;;
12038;SDS011;6080;48.818;9.526;2023-07-08T11:33:37;3.20;;;3.00;;
12038;SDS011;6080;48.818;9.526;2023-07-08T11:36:05;4.63;;;4.32;;
12038;SDS011;6080;48.818;9.526;2023-07-08T11:38:32;3.70;;;3.42;;
12038;SDS011;6080;48.818;9.526;2023-07-08T11:41:03;4.97;;;4.57;;
12038;SDS011;6080;48.818;9.526;2023-07-08T11:43:50;5.15;;;4.60;;
12038;SDS011;6080;48.818;9.526;2023-07-08T11:46:19;16.17;;;15.25;;
12038;SDS011;6080;48.818;9.526;2023-07-08T11:48:51;26.23;;;24.83;;
12038;SDS011;6080;48.818;9.526;2023-07-08T11:51:19;22.30;;;21.23;;
12038;SDS011;6080;48.818;9.526;2023-07-08T11:53:59;48.78;;;46.22;;
12038;SDS011;6080;48.818;9.526;2023-07-08T11:59:30;12.60;;;11.85;;
12038;SDS011;6080;48.818;9.526;2023-07-08T12:02:02;7.18;;;6.78;;
12038;SDS011;6080;48.818;9.526;2023-07-08T12:04:51;8.77;;;8.27;;
12038;SDS011;6080;48.818;9.526;2023-07-08T12:07:39;20.70;;;19.50;;
12038;SDS011;6080;48.818;9.526;2023-07-08T12:12:41;25.50;;;23.98;;
12038;SDS011;6080;48.818;9.526;2023-07-08T12:15:31;17.70;;;16.80;;
12038;SDS011;6080;48.818;9.526;2023-07-08T12:17:59;11.60;;;10.70;;
12038;SDS011;6080;48.818;9.526;2023-07-08T12:20:47;7.82;;;7.15;;
12038;SDS011;6080;48.818;9.526;2023-07-08T12:23:18;6.43;;;5.82;;
12038;SDS011;6080;48.818;9.526;2023-07-08T12:25:46;6.95;;;6.40;;
12038;SDS011;6080;48.818;9.526;2023-07-08T12:28:12;8.15;;;7.68;;
12038;SDS011;6080;48.818;9.526;2023-07-08T12:30:39;9.77;;;9.27;;
12038;SDS011;6080;48.818;9.526;2023-07-08T12:33:09;8.43;;;7.90;;
12038;SDS011;6080;48.818;9.526;2023-07-08T12:35:41;34.17;;;32.47;;
12038;SDS011;6080;48.818;9.526;2023-07-08T12:40:59;41.65;;;39.58;;
12038;SDS011;6080;48.818;9.526;2023-07-08T12:43:27;42.97;;;40.85;;
12038;SDS011;6080;48.818;9.526;2023-07-08T12:45:54;22.70;;;21.27;;
12038;SDS011;6080;48.818;9.526;2023-07-08T12:48:20;14.88;;;13.93;;
12038;SDS011;6080;48.818;9.526;2023-07-08T12:50:45;29.00;;;27.33;;
12038;SDS011;6080;48.818;9.526;2023-07-08T12:53:11;6.30;;;5.90;;
12038;SDS011;6080;48.818;9.526;2023-07-08T12:55:42;9.45;;;8.85;;
12038;SDS011;6080;48.818;9.526;2023-07-08T12:58:13;4.28;;;3.88;;
12038;SDS011;6080;48.818;9.526;2023-07-08T13:00:48;8.82;;;8.30;;
12038;SDS011;6080;48.818;9.526;2023-07-08T13:03:17;4.30;;;4.03;;
12038;SDS011;6080;48.818;9.526;2023-07-08T13:05:48;3.13;;;2.92;;
12038;SDS011;6080;48.818;9.526;2023-07-08T13:08:17;4.45;;;4.15;;
12038;SDS011;6080;48.818;9.526;2023-07-08T13:10:45;5.20;;;3.67;;
12038;SDS011;6080;48.818;9.526;2023-07-08T13:13:13;4.40;;;4.10;;
12038;SDS011;6080;48.818;9.526;2023-07-08T13:15:43;7.65;;;6.07;;
12038;SDS011;6080;48.818;9.526;2023-07-08T13:18:17;6.75;;;6.35;;
12038;SDS011;6080;48.818;9.526;2023-07-08T13:20:52;5.85;;;5.45;;
12038;SDS011;6080;48.818;9.526;2023-07-08T13:23:19;5.43;;;5.05;;
12038;SDS011;6080;48.818;9.526;2023-07-08T13:25:50;3.70;;;3.00;;
12038;SDS011;6080;48.818;9.526;2023-07-08T13:28:22;4.93;;;2.55;;
12038;SDS011;6080;48.818;9.526;2023-07-08T13:31:02;3.38;;;3.10;;
12038;SDS011;6080;48.818;9.526;2023-07-08T13:33:44;4.40;;;2.92;;
12038;SDS011;6080;48.818;9.526;2023-07-08T13:36:12;5.50;;;3.00;;
12038;SDS011;6080;48.818;9.526;2023-07-08T13:38:40;6.63;;;3.65;;
12038;SDS011;6080;48.818;9.526;2023-07-08T13:41:07;3.88;;;3.20;;
12038;SDS011;6080;48.818;9.526;2023-07-08T13:43:34;3.30;;;2.97;;
12038;SDS011;6080;48.818;9.526;2023-07-08T13:46:03;2.60;;;2.40;;
12038;SDS011;6080;48.818;9.526;2023-07-08T13:48:43;3.40;;;2.63;;
12038;SDS011;6080;48.818;9.526;2023-07-08T13:51:10;3.75;;;3.45;;
12038;SDS011;6080;48.818;9.526;2023-07-08T13:53:44;4.05;;;3.75;;
12038;SDS011;6080;48.818;9.526;2023-07-08T13:56:18;5.18;;;4.82;;
12038;SDS011;6080;48.818;9.526;2023-07-08T13:59:03;6.20;;;4.30;;
12038;SDS011;6080;48.818;9.526;2023-07-08T14:01:38;9.52;;;3.42;;
12038;SDS011;6080;48.818;9.526;2023-07-08T14:04:06;4.60;;;3.38;;
12038;SDS011;6080;48.818;9.526;2023-07-08T14:06:34;3.75;;;3.45;;
12038;SDS011;6080;48.818;9.526;2023-07-08T14:09:11;5.28;;;3.83;;
12038;SDS011;6080;48.818;9.526;2023-07-08T14:11:39;4.45;;;3.90;;
12038;SDS011;6080;48.818;9.526;2023-07-08T14:14:06;3.63;;;3.35;;
12038;SDS011;6080;48.818;9.526;2023-07-08T14:16:33;4.63;;;4.13;;
12038;SDS011;6080;48.818;9.526;2023-07-08T14:19:03;7.25;;;6.85;;
12038;SDS011;6080;48.818;9.526;2023-07-08T14:21:30;5.22;;;4.82;;
12038;SDS011;6080;48.818;9.526;2023-07-08T14:23:58;7.40;;;6.88;;
12038;SDS011;6080;48.818;9.526;2023-07-08T14:26:24;10.90;;;10.35;;
12038;SDS011;6080;48.818;9.526;2023-07-08T14:28:51;14.43;;;13.50;;
12038;SDS011;6080;48.818;9.526;2023-07-08T14:31:18;18.92;;;17.73;;
12038;SDS011;6080;48.818;9.526;2023-07-08T14:33:48;16.58;;;15.38;;
12038;SDS011;6080;48.818;9.526;2023-07-08T14:36:15;8.52;;;7.85;;
12038;SDS011;6080;48.818;9.526;2023-07-08T14:38:41;6.63;;;6.03;;
12038;SDS011;6080;48.818;9.526;2023-07-08T14:41:07;5.80;;;5.40;;
12038;SDS011;6080;48.818;9.526;2023-07-08T14:43:33;4.68;;;4.28;;
12038;SDS011;6080;48.818;9.526;2023-07-08T14:46:00;11.57;;;10.77;;
12038;SDS011;6080;48.818;9.526;2023-07-08T14:48:28;36.53;;;34.42;;
12038;SDS011;6080;48.818;9.526;2023-07-08T14:50:56;34.35;;;32.20;;
12038;SDS011;6080;48.818;9.526;2023-07-08T14:53:22;40.08;;;37.88;;
12038;SDS011;6080;48.818;9.526;2023-07-08T14:55:49;49.78;;;47.25;;
12038;SDS011;6080;48.818;9.526;2023-07-08T14:58:22;74.22;;;70.60;;
12038;SDS011;6080;48.818;9.526;2023-07-08T15:00:57;54.85;;;51.95;;
12038;SDS011;6080;48.818;9.526;2023-07-08T15:03:25;38.38;;;36.47;;
12038;SDS011;6080;48.818;9.526;2023-07-08T15:05:52;31.35;;;29.58;;
12038;SDS011;6080;48.818;9.526;2023-07-08T15:08:18;8.13;;;7.63;;
12038;SDS011;6080;48.818;9.526;2023-07-08T15:10:47;4.22;;;3.55;;
12038;SDS011;6080;48.818;9.526;2023-07-08T15:13:15;4.35;;;3.53;;
12038;SDS011;6080;48.818;9.526;2023-07-08T15:15:44;6.03;;;5.47;;
12038;SDS011;6080;48.818;9.526;2023-07-08T15:18:11;9.23;;;8.52;;
12038;SDS011;6080;48.818;9.526;2023-07-08T15:20:40;12.88;;;11.98;;
12038;SDS011;6080;48.818;9.526;2023-07-08T15:23:07;20.58;;;19.48;;
12038;SDS011;6080;48.818;9.526;2023-07-08T15:25:33;15.32;;;14.35;;
12038;SDS011;6080;48.818;9.526;2023-07-08T15:27:59;17.98;;;16.73;;
12038;SDS011;6080;48.818;9.526;2023-07-08T15:30:30;14.35;;;13.27;;
12038;SDS011;6080;48.818;9.526;2023-07-08T15:32:56;12.10;;;11.40;;
12038;SDS011;6080;48.818;9.526;2023-07-08T15:35:25;11.40;;;10.60;;
12038;SDS011;6080;48.818;9.526;2023-07-08T15:37:59;9.85;;;9.00;;
12038;SDS011;6080;48.818;9.526;2023-07-08T15:40:30;9.27;;;8.55;;
12038;SDS011;6080;48.818;9.526;2023-07-08T15:42:58;17.13;;;16.02;;
12038;SDS011;6080;48.818;9.526;2023-07-08T15:45:28;22.45;;;21.25;;
12038;SDS011;6080;48.818;9.526;2023-07-08T15:47:55;27.50;;;26.00;;
12038;SDS011;6080;48.818;9.526;2023-07-08T15:50:22;32.20;;;30.33;;
12038;SDS011;6080;48.818;9.526;2023-07-08T15:52:50;12.55;;;11.77;;
12038;SDS011;6080;48.818;9.526;2023-07-08T15:55:17;10.27;;;9.45;;
12038;SDS011;6080;48.818;9.526;2023-07-08T15:58:06;4.75;;;4.35;;
12038;SDS011;6080;48.818;9.526;2023-07-08T16:00:40;5.72;;;3.75;;
12038;SDS011;6080;48.818;9.526;2023-07-08T16:03:09;4.30;;;3.70;;
12038;SDS011;6080;48.818;9.526;2023-07-08T16:05:40;4.38;;;4.05;;
12038;SDS011;6080;48.818;9.526;2023-07-08T16:08:06;5.43;;;3.70;;
12038;SDS011;6080;48.818;9.526;2023-07-08T16:10:32;6.03;;;3.65;;
12038;SDS011;6080;48.818;9.526;2023-07-08T16:12:58;5.60;;;3.65;;
12038;SDS011;6080;48.818;9.526;2023-07-08T16:15:31;4.90;;;4.30;;
12038;SDS011;6080;48.818;9.526;2023-07-08T16:18:00;6.03;;;4.30;;
12038;SDS011;6080;48.818;9.526;2023-07-08T16:20:27;4.80;;;4.50;;
12038;SDS011;6080;48.818;9.526;2023-07-08T16:22:54;19.17;;;18.00;;
12038;SDS011;6080;48.818;9.526;2023-07-08T16:25:28;41.47;;;38.42;;
12038;SDS011;6080;48.818;9.526;2023-07-08T16:28:05;47.85;;;45.20;;
12038;SDS011;6080;48.818;9.526;2023-07-08T16:30:31;64.40;;;60.92;;
12038;SDS011;6080;48.818;9.526;2023-07-08T16:32:57;133.43;;;126.60;;
12038;SDS011;6080;48.818;9.526;2023-07-08T16:35:23;146.77;;;139.38;;
12038;SDS011;6080;48.818;9.526;2023-07-08T16:37:50;135.90;;;128.85;;
12038;SDS011;6080;48.818;9.526;2023-07-08T16:40:19;115.20;;;109.03;;
12038;SDS011;6080;48.818;9.526;2023-07-08T16:42:51;141.27;;;131.13;;
12038;SDS011;6080;48.818;9.526;2023-07-08T16:45:20;67.03;;;63.42;;
12038;SDS011;6080;48.818;9.526;2023-07-08T16:47:47;139.07;;;123.28;;
12038;SDS011;6080;48.818;9.526;2023-07-08T16:50:17;66.03;;;61.55;;
12038;SDS011;6080;48.818;9.526;2023-07-08T16:52:44;59.00;;;55.33;;
12038;SDS011;6080;48.818;9.526;2023-07-08T16:55:14;96.65;;;88.40;;
12038;SDS011;6080;48.818;9.526;2023-07-08T16:57:44;48.88;;;46.03;;
12038;SDS011;6080;48.818;9.526;2023-07-08T17:00:15;75.60;;;70.63;;
12038;SDS011;6080;48.818;9.526;2023-07-08T17:02:46;72.57;;;66.05;;
12038;SDS011;6080;48.818;9.526;2023-07-08T17:07:44;5.63;;;4.95;;
12038;SDS011;6080;48.818;9.526;2023-07-08T17:10:09;8.50;;;7.90;;
12038;SDS011;6080;48.818;9.526;2023-07-08T17:12:36;7.97;;;7.32;;
12038;SDS011;6080;48.818;9.526;2023-07-08T17:15:02;20.63;;;15.73;;
12038;SDS011;6080;48.818;9.526;2023-07-08T17:17:28;10.88;;;9.63;;
12038;SDS011;6080;48.818;9.526;2023-07-08T17:19:55;10.85;;;8.55;;
12038;SDS011;6080;48.818;9.526;2023-07-08T17:22:21;10.38;;;9.55;;
12038;SDS011;6080;48.818;9.526;2023-07-08T17:24:47;7.00;;;6.53;;
12038;SDS011;6080;48.818;9.526;2023-07-08T17:27:13;7.97;;;7.30;;
12038;SDS011;6080;48.818;9.526;2023-07-08T17:29:38;7.40;;;6.80;;
12038;SDS011;6080;48.818;9.526;2023-07-08T17:32:04;9.55;;;8.85;;
12038;SDS011;6080;48.818;9.526;2023-07-08T17:34:31;17.27;;;15.57;;
12038;SDS011;6080;48.818;9.526;2023-07-08T17:36:58;19.30;;;17.90;;
12038;SDS011;6080;48.818;9.526;2023-07-08T17:39:23;14.27;;;12.95;;
12038;SDS011;6080;48.818;9.526;2023-07-08T17:41:50;23.05;;;21.15;;
12038;SDS011;6080;48.818;9.526;2023-07-08T17:44:17;15.70;;;14.45;;
12038;SDS011;6080;48.818;9.526;2023-07-08T17:46:43;24.17;;;22.15;;
12038;SDS011;6080;48.818;9.526;2023-07-08T17:49:12;16.48;;;15.40;;
12038;SDS011;6080;48.818;9.526;2023-07-08T17:51:39;16.08;;;14.63;;
12038;SDS011;6080;48.818;9.526;2023-07-08T17:54:12;11.10;;;10.38;;
12038;SDS011;6080;48.818;9.526;2023-07-08T17:56:43;7.00;;;6.50;;
12038;SDS011;6080;48.818;9.526;2023-07-08T17:59:17;11.35;;;10.35;;
12038;SDS011;6080;48.818;9.526;2023-07-08T18:01:45;44.13;;;26.55;;
12038;SDS011;6080;48.818;9.526;2023-07-08T18:04:11;8.48;;;6.93;;
12038;SDS011;6080;48.818;9.526;2023-07-08T18:06:38;7.53;;;5.93;;
12038;SDS011;6080;48.818;9.526;2023-07-08T18:09:03;7.43;;;6.88;;
12038;SDS011;6080;48.818;9.526;2023-07-08T18:11:30;10.50;;;9.93;;
12038;SDS011;6080;48.818;9.526;2023-07-08T18:13:58;15.65;;;14.77;;
12038;SDS011;6080;48.818;9.526;2023-07-08T18:16:24;16.40;;;15.45;;
12038;SDS011;6080;48.818;9.526;2023-07-08T18:18:52;15.95;;;14.88;;
12038;SDS011;6080;48.818;9.526;2023-07-08T18:21:22;12.95;;;11.95;;
12038;SDS011;6080;48.818;9.526;2023-07-08T18:23:51;9.95;;;9.15;;
12038;SDS011;6080;48.818;9.526;2023-07-08T18:26:22;7.20;;;6.32;;
12038;SDS011;6080;48.818;9.526;2023-07-08T18:28:49;7.72;;;7.03;;
12038;SDS011;6080;48.818;9.526;2023-07-08T18:31:16;8.35;;;6.32;;
12038;SDS011;6080;48.818;9.526;2023-07-08T18:33:46;6.07;;;5.78;;
12038;SDS011;6080;48.818;9.526;2023-07-08T18:36:14;7.00;;;6.22;;
12038;SDS011;6080;48.818;9.526;2023-07-08T18:38:41;8.13;;;7.38;;
12038;SDS011;6080;48.818;9.526;2023-07-08T18:41:18;7.63;;;7.22;;
12038;SDS011;6080;48.818;9.526;2023-07-08T18:43:46;17.13;;;16.13;;
12038;SDS011;6080;48.818;9.526;2023-07-08T18:46:12;17.83;;;16.83;;
12038;SDS011;6080;48.818;9.526;2023-07-08T18:48:40;14.60;;;13.60;;